Aviation Digital Data Service (ADDS)

Output produced by TAFs form (0142 UTC 22 November 2017)
found at http://www.aviationweather.gov/adds/tafs/
 
METAR text: RORS 220100Z 24012KT 9999 VCSH FEW009 SCT060 BKN100 25/22 Q1014
Conditions at: RORS (SHIMOJI-SHIMA IS, JP) observed 0100 UTC 22 November 2017
Temperature: 25.0°C (77°F)
Dewpoint: 22.0°C (72°F) [RH = 83%]
Pressure (altimeter): 29.94 inches Hg (1014.0 mb)
Winds: from the WSW (240 degrees) at 14 MPH (12 knots; 6.2 m/s)
Visibility: 6 or more miles (10+ km)
Ceiling: 10000 feet AGL
Clouds: few clouds at 900 feet AGL
scattered clouds at 6000 feet AGL
broken clouds at 10000 feet AGL
Weather: VCSH  (showers in vicinity)